sensor_id;sensor_type;location;lat;lon;timestamp;P1;durP1;ratioP1;P2;durP2;ratioP2
66707;SDS011;53622;0.000;0.000;2022-11-14T00:00:02;3.50;;;3.20;;
66707;SDS011;53622;0.000;0.000;2022-11-14T00:02:51;3.40;;;3.10;;
66707;SDS011;53622;0.000;0.000;2022-11-14T00:05:40;3.65;;;3.00;;
66707;SDS011;53622;0.000;0.000;2022-11-14T00:08:29;4.43;;;3.75;;
66707;SDS011;53622;0.000;0.000;2022-11-14T00:11:18;3.88;;;3.40;;
66707;SDS011;53622;0.000;0.000;2022-11-14T00:14:08;3.63;;;3.30;;
66707;SDS011;53622;0.000;0.000;2022-11-14T00:16:56;3.83;;;3.50;;
66707;SDS011;53622;0.000;0.000;2022-11-14T00:19:43;4.10;;;3.50;;
66707;SDS011;53622;0.000;0.000;2022-11-14T00:22:31;4.38;;;3.78;;
66707;SDS011;53622;0.000;0.000;2022-11-14T00:25:18;4.05;;;3.65;;
66707;SDS011;53622;0.000;0.000;2022-11-14T00:28:07;3.92;;;3.63;;
66707;SDS011;53622;0.000;0.000;2022-11-14T00:30:55;5.03;;;3.85;;
66707;SDS011;53622;0.000;0.000;2022-11-14T00:33:43;4.88;;;3.78;;
66707;SDS011;53622;0.000;0.000;2022-11-14T00:36:30;4.13;;;3.58;;
66707;SDS011;53622;0.000;0.000;2022-11-14T00:39:18;4.22;;;3.83;;
66707;SDS011;53622;0.000;0.000;2022-11-14T00:42:06;3.85;;;3.50;;
66707;SDS011;53622;0.000;0.000;2022-11-14T00:44:55;3.85;;;3.47;;
66707;SDS011;53622;0.000;0.000;2022-11-14T00:47:43;4.03;;;3.67;;
66707;SDS011;53622;0.000;0.000;2022-11-14T00:50:30;4.32;;;3.90;;
66707;SDS011;53622;0.000;0.000;2022-11-14T00:53:18;4.50;;;4.07;;
66707;SDS011;53622;0.000;0.000;2022-11-14T00:56:06;4.13;;;3.72;;
66707;SDS011;53622;0.000;0.000;2022-11-14T00:58:54;4.20;;;3.70;;
66707;SDS011;53622;0.000;0.000;2022-11-14T01:01:43;4.93;;;4.43;;
66707;SDS011;53622;0.000;0.000;2022-11-14T01:04:31;4.38;;;3.97;;
66707;SDS011;53622;0.000;0.000;2022-11-14T01:07:19;4.18;;;3.75;;
66707;SDS011;53622;0.000;0.000;2022-11-14T01:10:07;4.50;;;4.10;;
66707;SDS011;53622;0.000;0.000;2022-11-14T01:12:55;4.40;;;3.90;;
66707;SDS011;53622;0.000;0.000;2022-11-14T01:15:44;4.13;;;3.83;;
66707;SDS011;53622;0.000;0.000;2022-11-14T01:18:35;3.90;;;3.60;;
66707;SDS011;53622;0.000;0.000;2022-11-14T01:21:24;4.20;;;3.80;;
66707;SDS011;53622;0.000;0.000;2022-11-14T01:24:12;4.50;;;4.10;;
66707;SDS011;53622;0.000;0.000;2022-11-14T01:26:59;4.05;;;3.72;;
66707;SDS011;53622;0.000;0.000;2022-11-14T01:29:47;4.20;;;3.80;;
66707;SDS011;53622;0.000;0.000;2022-11-14T01:32:35;4.40;;;4.00;;
66707;SDS011;53622;0.000;0.000;2022-11-14T01:35:24;4.65;;;4.25;;
66707;SDS011;53622;0.000;0.000;2022-11-14T01:38:13;4.18;;;3.60;;
66707;SDS011;53622;0.000;0.000;2022-11-14T01:41:02;5.28;;;4.20;;
66707;SDS011;53622;0.000;0.000;2022-11-14T01:43:51;3.85;;;3.55;;
66707;SDS011;53622;0.000;0.000;2022-11-14T01:46:39;4.22;;;3.83;;
66707;SDS011;53622;0.000;0.000;2022-11-14T01:49:29;5.28;;;4.18;;
66707;SDS011;53622;0.000;0.000;2022-11-14T01:52:23;3.78;;;3.47;;
66707;SDS011;53622;0.000;0.000;2022-11-14T01:55:14;4.03;;;3.63;;
66707;SDS011;53622;0.000;0.000;2022-11-14T01:58:01;5.05;;;4.00;;
66707;SDS011;53622;0.000;0.000;2022-11-14T02:00:49;4.78;;;3.80;;
66707;SDS011;53622;0.000;0.000;2022-11-14T02:03:38;4.03;;;3.70;;
66707;SDS011;53622;0.000;0.000;2022-11-14T02:06:28;4.60;;;4.20;;
66707;SDS011;53622;0.000;0.000;2022-11-14T02:09:19;4.38;;;3.97;;
66707;SDS011;53622;0.000;0.000;2022-11-14T02:12:08;5.65;;;4.20;;
66707;SDS011;53622;0.000;0.000;2022-11-14T02:15:00;5.82;;;4.03;;
66707;SDS011;53622;0.000;0.000;2022-11-14T02:17:48;4.38;;;3.97;;
66707;SDS011;53622;0.000;0.000;2022-11-14T02:20:37;4.30;;;3.90;;
66707;SDS011;53622;0.000;0.000;2022-11-14T02:23:28;4.10;;;3.70;;
66707;SDS011;53622;0.000;0.000;2022-11-14T02:26:17;4.18;;;3.75;;
66707;SDS011;53622;0.000;0.000;2022-11-14T02:29:05;3.70;;;3.40;;
66707;SDS011;53622;0.000;0.000;2022-11-14T02:31:54;3.88;;;3.58;;
66707;SDS011;53622;0.000;0.000;2022-11-14T02:34:42;4.53;;;3.60;;
66707;SDS011;53622;0.000;0.000;2022-11-14T02:37:31;4.15;;;3.70;;
66707;SDS011;53622;0.000;0.000;2022-11-14T02:40:19;4.50;;;4.00;;
66707;SDS011;53622;0.000;0.000;2022-11-14T02:43:07;4.00;;;3.60;;
66707;SDS011;53622;0.000;0.000;2022-11-14T02:45:54;4.22;;;3.80;;
66707;SDS011;53622;0.000;0.000;2022-11-14T02:48:49;3.97;;;3.67;;
66707;SDS011;53622;0.000;0.000;2022-11-14T02:51:37;3.97;;;3.58;;
66707;SDS011;53622;0.000;0.000;2022-11-14T02:54:27;3.90;;;3.50;;
66707;SDS011;53622;0.000;0.000;2022-11-14T02:57:15;4.07;;;3.70;;
66707;SDS011;53622;0.000;0.000;2022-11-14T03:00:03;4.53;;;4.13;;
66707;SDS011;53622;0.000;0.000;2022-11-14T03:02:58;4.03;;;3.63;;
66707;SDS011;53622;0.000;0.000;2022-11-14T03:05:46;3.92;;;3.53;;
66707;SDS011;53622;0.000;0.000;2022-11-14T03:08:36;4.10;;;3.70;;
66707;SDS011;53622;0.000;0.000;2022-11-14T03:11:25;4.22;;;3.45;;
66707;SDS011;53622;0.000;0.000;2022-11-14T03:14:13;4.05;;;3.65;;
66707;SDS011;53622;0.000;0.000;2022-11-14T03:17:00;4.03;;;3.63;;
66707;SDS011;53622;0.000;0.000;2022-11-14T03:19:48;4.05;;;3.63;;
66707;SDS011;53622;0.000;0.000;2022-11-14T03:22:37;3.55;;;3.25;;
66707;SDS011;53622;0.000;0.000;2022-11-14T03:25:24;3.88;;;3.47;;
66707;SDS011;53622;0.000;0.000;2022-11-14T03:28:13;5.13;;;3.95;;
66707;SDS011;53622;0.000;0.000;2022-11-14T03:31:01;4.35;;;3.70;;
66707;SDS011;53622;0.000;0.000;2022-11-14T03:33:49;4.20;;;3.80;;
66707;SDS011;53622;0.000;0.000;2022-11-14T03:36:36;4.10;;;3.50;;
66707;SDS011;53622;0.000;0.000;2022-11-14T03:39:25;4.63;;;3.83;;
66707;SDS011;53622;0.000;0.000;2022-11-14T03:42:12;4.03;;;3.63;;
66707;SDS011;53622;0.000;0.000;2022-11-14T03:45:02;4.13;;;3.60;;
66707;SDS011;53622;0.000;0.000;2022-11-14T03:47:50;4.30;;;3.85;;
66707;SDS011;53622;0.000;0.000;2022-11-14T03:50:41;3.67;;;3.38;;
66707;SDS011;53622;0.000;0.000;2022-11-14T03:53:29;3.90;;;3.60;;
66707;SDS011;53622;0.000;0.000;2022-11-14T03:56:17;4.20;;;3.63;;
66707;SDS011;53622;0.000;0.000;2022-11-14T03:59:04;4.32;;;3.92;;
66707;SDS011;53622;0.000;0.000;2022-11-14T04:01:53;3.70;;;3.40;;
66707;SDS011;53622;0.000;0.000;2022-11-14T04:04:41;4.75;;;3.70;;
66707;SDS011;53622;0.000;0.000;2022-11-14T04:07:29;4.53;;;3.50;;
66707;SDS011;53622;0.000;0.000;2022-11-14T04:10:16;6.07;;;4.25;;
66707;SDS011;53622;0.000;0.000;2022-11-14T04:13:04;3.95;;;3.47;;
66707;SDS011;53622;0.000;0.000;2022-11-14T04:15:55;4.70;;;4.20;;
66707;SDS011;53622;0.000;0.000;2022-11-14T04:18:45;4.13;;;3.70;;
66707;SDS011;53622;0.000;0.000;2022-11-14T04:21:33;4.00;;;3.70;;
66707;SDS011;53622;0.000;0.000;2022-11-14T04:24:20;3.70;;;3.40;;
66707;SDS011;53622;0.000;0.000;2022-11-14T04:27:08;3.75;;;3.45;;
66707;SDS011;53622;0.000;0.000;2022-11-14T04:29:56;4.10;;;3.67;;
66707;SDS011;53622;0.000;0.000;2022-11-14T04:32:44;3.92;;;3.53;;
66707;SDS011;53622;0.000;0.000;2022-11-14T04:35:34;3.75;;;3.45;;
66707;SDS011;53622;0.000;0.000;2022-11-14T04:38:22;3.90;;;3.50;;
66707;SDS011;53622;0.000;0.000;2022-11-14T04:41:10;4.10;;;3.70;;
66707;SDS011;53622;0.000;0.000;2022-11-14T04:43:57;4.15;;;3.75;;
66707;SDS011;53622;0.000;0.000;2022-11-14T04:46:45;3.40;;;3.10;;
66707;SDS011;53622;0.000;0.000;2022-11-14T04:49:33;3.83;;;3.45;;
66707;SDS011;53622;0.000;0.000;2022-11-14T04:52:22;3.55;;;3.22;;
66707;SDS011;53622;0.000;0.000;2022-11-14T04:55:10;3.95;;;3.50;;
66707;SDS011;53622;0.000;0.000;2022-11-14T04:57:57;3.40;;;3.10;;
66707;SDS011;53622;0.000;0.000;2022-11-14T05:00:45;4.28;;;3.88;;
66707;SDS011;53622;0.000;0.000;2022-11-14T05:03:33;4.18;;;3.78;;
66707;SDS011;53622;0.000;0.000;2022-11-14T05:06:20;4.10;;;3.70;;
66707;SDS011;53622;0.000;0.000;2022-11-14T05:09:09;3.80;;;3.35;;
66707;SDS011;53622;0.000;0.000;2022-11-14T05:11:57;4.25;;;3.10;;
66707;SDS011;53622;0.000;0.000;2022-11-14T05:14:45;2.97;;;2.78;;
66707;SDS011;53622;0.000;0.000;2022-11-14T05:17:33;3.67;;;3.25;;
66707;SDS011;53622;0.000;0.000;2022-11-14T05:20:20;3.60;;;3.30;;
66707;SDS011;53622;0.000;0.000;2022-11-14T05:23:10;4.35;;;3.17;;
66707;SDS011;53622;0.000;0.000;2022-11-14T05:26:07;3.45;;;3.10;;
66707;SDS011;53622;0.000;0.000;2022-11-14T05:28:56;3.30;;;3.00;;
66707;SDS011;53622;0.000;0.000;2022-11-14T05:31:44;4.95;;;3.15;;
66707;SDS011;53622;0.000;0.000;2022-11-14T05:34:31;3.53;;;3.22;;
66707;SDS011;53622;0.000;0.000;2022-11-14T05:37:19;3.58;;;3.10;;
66707;SDS011;53622;0.000;0.000;2022-11-14T05:40:07;4.85;;;3.30;;
66707;SDS011;53622;0.000;0.000;2022-11-14T05:42:57;7.40;;;3.00;;
66707;SDS011;53622;0.000;0.000;2022-11-14T05:45:45;16.42;;;3.63;;
66707;SDS011;53622;0.000;0.000;2022-11-14T05:48:41;10.35;;;3.38;;
66707;SDS011;53622;0.000;0.000;2022-11-14T05:51:29;9.82;;;3.20;;
66707;SDS011;53622;0.000;0.000;2022-11-14T05:54:17;7.53;;;2.95;;
66707;SDS011;53622;0.000;0.000;2022-11-14T05:57:05;7.18;;;3.30;;
66707;SDS011;53622;0.000;0.000;2022-11-14T05:59:52;8.80;;;3.17;;
66707;SDS011;53622;0.000;0.000;2022-11-14T06:02:41;7.88;;;3.20;;
66707;SDS011;53622;0.000;0.000;2022-11-14T06:05:33;5.22;;;2.97;;
66707;SDS011;53622;0.000;0.000;2022-11-14T06:08:21;4.85;;;3.20;;
66707;SDS011;53622;0.000;0.000;2022-11-14T06:11:10;5.15;;;3.60;;
66707;SDS011;53622;0.000;0.000;2022-11-14T06:13:59;7.63;;;3.65;;
66707;SDS011;53622;0.000;0.000;2022-11-14T06:16:51;9.23;;;3.88;;
66707;SDS011;53622;0.000;0.000;2022-11-14T06:19:39;10.23;;;3.85;;
66707;SDS011;53622;0.000;0.000;2022-11-14T06:22:27;5.90;;;3.10;;
66707;SDS011;53622;0.000;0.000;2022-11-14T06:25:15;7.40;;;3.53;;
66707;SDS011;53622;0.000;0.000;2022-11-14T06:28:03;3.95;;;3.30;;
66707;SDS011;53622;0.000;0.000;2022-11-14T06:30:55;6.60;;;3.20;;
66707;SDS011;53622;0.000;0.000;2022-11-14T06:33:44;8.18;;;3.38;;
66707;SDS011;53622;0.000;0.000;2022-11-14T06:36:32;5.15;;;3.28;;
66707;SDS011;53622;0.000;0.000;2022-11-14T06:39:21;7.40;;;3.47;;
66707;SDS011;53622;0.000;0.000;2022-11-14T06:42:09;7.05;;;3.28;;
66707;SDS011;53622;0.000;0.000;2022-11-14T06:44:57;5.20;;;2.97;;
66707;SDS011;53622;0.000;0.000;2022-11-14T06:47:45;5.50;;;3.20;;
66707;SDS011;53622;0.000;0.000;2022-11-14T06:50:32;5.28;;;3.08;;
66707;SDS011;53622;0.000;0.000;2022-11-14T06:53:20;5.82;;;2.80;;
66707;SDS011;53622;0.000;0.000;2022-11-14T06:56:10;4.43;;;3.10;;
66707;SDS011;53622;0.000;0.000;2022-11-14T06:58:59;5.35;;;2.90;;
66707;SDS011;53622;0.000;0.000;2022-11-14T07:01:47;5.18;;;3.08;;
66707;SDS011;53622;0.000;0.000;2022-11-14T07:04:34;4.68;;;3.25;;
66707;SDS011;53622;0.000;0.000;2022-11-14T07:07:22;4.13;;;2.90;;
66707;SDS011;53622;0.000;0.000;2022-11-14T07:10:13;6.63;;;3.20;;
66707;SDS011;53622;0.000;0.000;2022-11-14T07:13:02;6.15;;;2.80;;
66707;SDS011;53622;0.000;0.000;2022-11-14T07:15:50;2.92;;;2.63;;
66707;SDS011;53622;0.000;0.000;2022-11-14T07:18:38;4.15;;;2.65;;
66707;SDS011;53622;0.000;0.000;2022-11-14T07:21:26;4.30;;;2.63;;
66707;SDS011;53622;0.000;0.000;2022-11-14T07:24:15;3.20;;;2.88;;
66707;SDS011;53622;0.000;0.000;2022-11-14T07:27:03;2.75;;;2.50;;
66707;SDS011;53622;0.000;0.000;2022-11-14T07:29:57;2.40;;;2.20;;
66707;SDS011;53622;0.000;0.000;2022-11-14T07:32:45;2.83;;;2.53;;
66707;SDS011;53622;0.000;0.000;2022-11-14T07:35:32;3.28;;;2.47;;
66707;SDS011;53622;0.000;0.000;2022-11-14T07:38:20;5.70;;;2.60;;
66707;SDS011;53622;0.000;0.000;2022-11-14T07:41:08;3.88;;;2.45;;
66707;SDS011;53622;0.000;0.000;2022-11-14T07:43:57;3.10;;;2.42;;
66707;SDS011;53622;0.000;0.000;2022-11-14T07:46:46;3.63;;;2.58;;
66707;SDS011;53622;0.000;0.000;2022-11-14T07:49:34;4.40;;;2.85;;
66707;SDS011;53622;0.000;0.000;2022-11-14T07:52:22;3.70;;;2.65;;
66707;SDS011;53622;0.000;0.000;2022-11-14T07:55:10;3.90;;;2.72;;
66707;SDS011;53622;0.000;0.000;2022-11-14T07:57:58;3.28;;;2.45;;
66707;SDS011;53622;0.000;0.000;2022-11-14T08:00:45;5.60;;;2.60;;
66707;SDS011;53622;0.000;0.000;2022-11-14T08:03:35;3.22;;;2.45;;
66707;SDS011;53622;0.000;0.000;2022-11-14T08:06:29;2.67;;;2.47;;
66707;SDS011;53622;0.000;0.000;2022-11-14T08:09:17;3.35;;;2.22;;
66707;SDS011;53622;0.000;0.000;2022-11-14T08:12:05;3.17;;;2.20;;
66707;SDS011;53622;0.000;0.000;2022-11-14T08:14:53;4.05;;;2.50;;
66707;SDS011;53622;0.000;0.000;2022-11-14T08:17:40;3.55;;;2.55;;
66707;SDS011;53622;0.000;0.000;2022-11-14T08:20:29;2.92;;;2.50;;
66707;SDS011;53622;0.000;0.000;2022-11-14T08:23:18;3.70;;;2.40;;
66707;SDS011;53622;0.000;0.000;2022-11-14T08:26:05;2.60;;;2.33;;
66707;SDS011;53622;0.000;0.000;2022-11-14T08:28:53;3.45;;;2.40;;
66707;SDS011;53622;0.000;0.000;2022-11-14T08:31:40;2.63;;;2.38;;
66707;SDS011;53622;0.000;0.000;2022-11-14T08:34:28;3.40;;;2.10;;
66707;SDS011;53622;0.000;0.000;2022-11-14T08:37:18;2.35;;;2.13;;
66707;SDS011;53622;0.000;0.000;2022-11-14T08:40:06;2.75;;;2.30;;
66707;SDS011;53622;0.000;0.000;2022-11-14T08:42:58;3.58;;;2.40;;
66707;SDS011;53622;0.000;0.000;2022-11-14T08:45:47;3.22;;;2.30;;
66707;SDS011;53622;0.000;0.000;2022-11-14T08:48:35;2.58;;;2.38;;
66707;SDS011;53622;0.000;0.000;2022-11-14T08:51:22;2.70;;;2.17;;
66707;SDS011;53622;0.000;0.000;2022-11-14T08:54:11;2.33;;;2.13;;
66707;SDS011;53622;0.000;0.000;2022-11-14T08:56:59;2.88;;;2.30;;
66707;SDS011;53622;0.000;0.000;2022-11-14T08:59:47;2.20;;;2.00;;
66707;SDS011;53622;0.000;0.000;2022-11-14T09:02:34;2.10;;;1.90;;
66707;SDS011;53622;0.000;0.000;2022-11-14T09:05:22;2.25;;;2.00;;
66707;SDS011;53622;0.000;0.000;2022-11-14T09:08:09;2.28;;;2.00;;
66707;SDS011;53622;0.000;0.000;2022-11-14T09:11:00;3.40;;;2.22;;
66707;SDS011;53622;0.000;0.000;2022-11-14T09:13:51;2.50;;;2.03;;
66707;SDS011;53622;0.000;0.000;2022-11-14T09:16:39;2.35;;;2.13;;
66707;SDS011;53622;0.000;0.000;2022-11-14T09:19:26;2.47;;;1.80;;
66707;SDS011;53622;0.000;0.000;2022-11-14T09:22:14;2.15;;;1.98;;
66707;SDS011;53622;0.000;0.000;2022-11-14T09:25:01;2.45;;;2.22;;
66707;SDS011;53622;0.000;0.000;2022-11-14T09:27:51;2.35;;;2.08;;
66707;SDS011;53622;0.000;0.000;2022-11-14T09:30:39;2.67;;;2.20;;
66707;SDS011;53622;0.000;0.000;2022-11-14T09:33:27;2.30;;;2.00;;
66707;SDS011;53622;0.000;0.000;2022-11-14T09:36:15;1.85;;;1.75;;
66707;SDS011;53622;0.000;0.000;2022-11-14T09:39:04;2.20;;;2.00;;
66707;SDS011;53622;0.000;0.000;2022-11-14T09:41:55;2.78;;;2.25;;
66707;SDS011;53622;0.000;0.000;2022-11-14T09:44:55;3.55;;;2.30;;
66707;SDS011;53622;0.000;0.000;2022-11-14T09:47:47;3.22;;;1.85;;
66707;SDS011;53622;0.000;0.000;2022-11-14T09:50:37;2.50;;;2.30;;
66707;SDS011;53622;0.000;0.000;2022-11-14T09:53:31;2.50;;;2.30;;
66707;SDS011;53622;0.000;0.000;2022-11-14T09:56:23;1.95;;;1.85;;
66707;SDS011;53622;0.000;0.000;2022-11-14T09:59:12;2.40;;;2.08;;
66707;SDS011;53622;0.000;0.000;2022-11-14T10:02:04;2.30;;;2.10;;
66707;SDS011;53622;0.000;0.000;2022-11-14T10:05:22;2.47;;;1.77;;
66707;SDS011;53622;0.000;0.000;2022-11-14T10:08:28;1.95;;;1.65;;
66707;SDS011;53622;0.000;0.000;2022-11-14T10:11:31;2.05;;;1.85;;
66707;SDS011;53622;0.000;0.000;2022-11-14T10:14:27;2.17;;;1.98;;
66707;SDS011;53622;0.000;0.000;2022-11-14T10:20:47;1.95;;;1.83;;
66707;SDS011;53622;0.000;0.000;2022-11-14T10:23:42;2.08;;;1.88;;
66707;SDS011;53622;0.000;0.000;2022-11-14T10:26:37;2.95;;;2.10;;
66707;SDS011;53622;0.000;0.000;2022-11-14T10:29:35;2.67;;;2.47;;
66707;SDS011;53622;0.000;0.000;2022-11-14T10:32:45;2.30;;;2.10;;
66707;SDS011;53622;0.000;0.000;2022-11-14T10:35:55;2.53;;;1.90;;
66707;SDS011;53622;0.000;0.000;2022-11-14T10:38:49;2.28;;;2.08;;
66707;SDS011;53622;0.000;0.000;2022-11-14T10:41:40;2.10;;;1.90;;
66707;SDS011;53622;0.000;0.000;2022-11-14T10:44:50;2.22;;;1.98;;
66707;SDS011;53622;0.000;0.000;2022-11-14T10:47:45;2.15;;;1.95;;
66707;SDS011;53622;0.000;0.000;2022-11-14T10:50:38;2.28;;;1.92;;
66707;SDS011;53622;0.000;0.000;2022-11-14T10:53:36;2.80;;;2.22;;
66707;SDS011;53622;0.000;0.000;2022-11-14T10:56:32;2.33;;;2.10;;
66707;SDS011;53622;0.000;0.000;2022-11-14T10:59:20;1.98;;;1.77;;
66707;SDS011;53622;0.000;0.000;2022-11-14T11:02:08;2.30;;;2.10;;
66707;SDS011;53622;0.000;0.000;2022-11-14T11:04:57;3.13;;;2.28;;
66707;SDS011;53622;0.000;0.000;2022-11-14T11:07:59;2.30;;;2.08;;
66707;SDS011;53622;0.000;0.000;2022-11-14T11:11:25;2.22;;;2.03;;
66707;SDS011;53622;0.000;0.000;2022-11-14T11:14:16;2.30;;;2.10;;
66707;SDS011;53622;0.000;0.000;2022-11-14T11:17:16;2.13;;;1.90;;
66707;SDS011;53622;0.000;0.000;2022-11-14T11:20:21;1.88;;;1.73;;
66707;SDS011;53622;0.000;0.000;2022-11-14T11:23:16;2.70;;;2.22;;
66707;SDS011;53622;0.000;0.000;2022-11-14T11:26:14;2.15;;;1.95;;
66707;SDS011;53622;0.000;0.000;2022-11-14T11:29:07;3.22;;;2.47;;
66707;SDS011;53622;0.000;0.000;2022-11-14T11:32:03;2.20;;;2.03;;
66707;SDS011;53622;0.000;0.000;2022-11-14T11:34:51;2.58;;;2.20;;
66707;SDS011;53622;0.000;0.000;2022-11-14T11:37:41;2.97;;;2.20;;
66707;SDS011;53622;0.000;0.000;2022-11-14T11:40:31;2.30;;;2.10;;
66707;SDS011;53622;0.000;0.000;2022-11-14T11:43:23;2.97;;;2.33;;
66707;SDS011;53622;0.000;0.000;2022-11-14T11:46:28;2.22;;;2.10;;
66707;SDS011;53622;0.000;0.000;2022-11-14T11:49:22;2.13;;;1.98;;
66707;SDS011;53622;0.000;0.000;2022-11-14T11:52:18;1.70;;;1.60;;
66707;SDS011;53622;0.000;0.000;2022-11-14T11:55:15;2.35;;;2.15;;
66707;SDS011;53622;0.000;0.000;2022-11-14T11:58:09;2.97;;;2.20;;
66707;SDS011;53622;0.000;0.000;2022-11-14T12:01:02;2.83;;;2.05;;
66707;SDS011;53622;0.000;0.000;2022-11-14T12:03:52;2.10;;;1.90;;
66707;SDS011;53622;0.000;0.000;2022-11-14T12:06:42;2.42;;;2.08;;
66707;SDS011;53622;0.000;0.000;2022-11-14T12:09:36;2.13;;;1.92;;
66707;SDS011;53622;0.000;0.000;2022-11-14T12:16:11;2.83;;;2.13;;
66707;SDS011;53622;0.000;0.000;2022-11-14T12:22:40;3.55;;;2.25;;
66707;SDS011;53622;0.000;0.000;2022-11-14T12:25:44;2.75;;;1.95;;
66707;SDS011;53622;0.000;0.000;2022-11-14T12:28:50;2.05;;;1.85;;
66707;SDS011;53622;0.000;0.000;2022-11-14T12:31:48;2.55;;;2.10;;
66707;SDS011;53622;0.000;0.000;2022-11-14T12:34:41;2.03;;;1.80;;
66707;SDS011;53622;0.000;0.000;2022-11-14T12:37:31;3.83;;;2.20;;
66707;SDS011;53622;0.000;0.000;2022-11-14T12:40:24;2.08;;;1.98;;
66707;SDS011;53622;0.000;0.000;2022-11-14T12:43:27;2.08;;;1.88;;
66707;SDS011;53622;0.000;0.000;2022-11-14T12:46:22;2.22;;;1.92;;
66707;SDS011;53622;0.000;0.000;2022-11-14T12:52:43;2.55;;;2.35;;
66707;SDS011;53622;0.000;0.000;2022-11-14T12:55:55;2.30;;;2.10;;
66707;SDS011;53622;0.000;0.000;2022-11-14T13:05:42;1.73;;;1.63;;
66707;SDS011;53622;0.000;0.000;2022-11-14T13:15:45;2.78;;;2.05;;
66707;SDS011;53622;0.000;0.000;2022-11-14T13:18:53;2.75;;;2.13;;
66707;SDS011;53622;0.000;0.000;2022-11-14T13:22:18;2.28;;;2.08;;
66707;SDS011;53622;0.000;0.000;2022-11-14T13:25:22;2.92;;;2.00;;
66707;SDS011;53622;0.000;0.000;2022-11-14T13:31:45;2.80;;;2.10;;
66707;SDS011;53622;0.000;0.000;2022-11-14T13:34:36;2.30;;;2.08;;
66707;SDS011;53622;0.000;0.000;2022-11-14T13:37:33;2.55;;;2.35;;
66707;SDS011;53622;0.000;0.000;2022-11-14T13:40:47;2.95;;;2.13;;
66707;SDS011;53622;0.000;0.000;2022-11-14T13:43:48;2.90;;;2.30;;
66707;SDS011;53622;0.000;0.000;2022-11-14T13:46:55;2.80;;;2.00;;
66707;SDS011;53622;0.000;0.000;2022-11-14T13:49:58;3.17;;;2.10;;
66707;SDS011;53622;0.000;0.000;2022-11-14T13:52:48;2.53;;;2.08;;
66707;SDS011;53622;0.000;0.000;2022-11-14T13:55:37;2.72;;;2.20;;
66707;SDS011;53622;0.000;0.000;2022-11-14T13:58:59;2.50;;;2.30;;
66707;SDS011;53622;0.000;0.000;2022-11-14T14:02:22;2.42;;;2.05;;
66707;SDS011;53622;0.000;0.000;2022-11-14T14:05:35;2.13;;;1.92;;
66707;SDS011;53622;0.000;0.000;2022-11-14T14:08:40;2.65;;;2.28;;
66707;SDS011;53622;0.000;0.000;2022-11-14T14:11:46;3.53;;;2.10;;
66707;SDS011;53622;0.000;0.000;2022-11-14T14:14:51;2.40;;;2.20;;
66707;SDS011;53622;0.000;0.000;2022-11-14T14:17:54;2.50;;;2.30;;
66707;SDS011;53622;0.000;0.000;2022-11-14T14:20:50;2.83;;;2.10;;
66707;SDS011;53622;0.000;0.000;2022-11-14T14:23:45;3.08;;;2.15;;
66707;SDS011;53622;0.000;0.000;2022-11-14T14:26:41;2.53;;;2.33;;
66707;SDS011;53622;0.000;0.000;2022-11-14T14:29:44;2.38;;;2.17;;
66707;SDS011;53622;0.000;0.000;2022-11-14T14:32:41;2.33;;;2.10;;
66707;SDS011;53622;0.000;0.000;2022-11-14T14:35:30;2.67;;;2.47;;
66707;SDS011;53622;0.000;0.000;2022-11-14T14:38:25;2.50;;;2.30;;
66707;SDS011;53622;0.000;0.000;2022-11-14T14:41:15;4.00;;;2.55;;
66707;SDS011;53622;0.000;0.000;2022-11-14T14:44:05;2.28;;;2.08;;
66707;SDS011;53622;0.000;0.000;2022-11-14T14:47:13;2.53;;;2.30;;
66707;SDS011;53622;0.000;0.000;2022-11-14T14:50:05;2.33;;;2.13;;
66707;SDS011;53622;0.000;0.000;2022-11-14T14:53:02;2.42;;;2.17;;
66707;SDS011;53622;0.000;0.000;2022-11-14T14:55:51;2.65;;;2.40;;
66707;SDS011;53622;0.000;0.000;2022-11-14T14:58:41;2.33;;;1.95;;
66707;SDS011;53622;0.000;0.000;2022-11-14T15:01:30;2.47;;;2.28;;
66707;SDS011;53622;0.000;0.000;2022-11-14T15:04:22;2.40;;;2.15;;
66707;SDS011;53622;0.000;0.000;2022-11-14T15:07:18;2.50;;;2.30;;
66707;SDS011;53622;0.000;0.000;2022-11-14T15:10:17;3.05;;;2.10;;
66707;SDS011;53622;0.000;0.000;2022-11-14T15:13:09;6.53;;;2.40;;
66707;SDS011;53622;0.000;0.000;2022-11-14T15:16:00;7.43;;;2.60;;
66707;SDS011;53622;0.000;0.000;2022-11-14T15:18:49;5.72;;;2.08;;
66707;SDS011;53622;0.000;0.000;2022-11-14T15:21:39;5.50;;;1.90;;
66707;SDS011;53622;0.000;0.000;2022-11-14T15:24:29;4.20;;;2.22;;
66707;SDS011;53622;0.000;0.000;2022-11-14T15:27:18;3.38;;;2.05;;
66707;SDS011;53622;0.000;0.000;2022-11-14T15:30:17;5.38;;;1.88;;
66707;SDS011;53622;0.000;0.000;2022-11-14T15:36:14;2.03;;;1.60;;
66707;SDS011;53622;0.000;0.000;2022-11-14T15:39:03;3.45;;;1.80;;
66707;SDS011;53622;0.000;0.000;2022-11-14T15:42:15;3.95;;;1.90;;
66707;SDS011;53622;0.000;0.000;2022-11-14T15:45:19;4.53;;;1.85;;
66707;SDS011;53622;0.000;0.000;2022-11-14T15:48:10;2.47;;;2.10;;
66707;SDS011;53622;0.000;0.000;2022-11-14T15:51:01;2.78;;;1.67;;
66707;SDS011;53622;0.000;0.000;2022-11-14T15:53:49;2.88;;;1.75;;
66707;SDS011;53622;0.000;0.000;2022-11-14T15:56:38;4.13;;;1.77;;
66707;SDS011;53622;0.000;0.000;2022-11-14T15:59:28;3.45;;;1.95;;
66707;SDS011;53622;0.000;0.000;2022-11-14T16:02:17;2.50;;;1.88;;
66707;SDS011;53622;0.000;0.000;2022-11-14T16:05:10;2.35;;;2.03;;
66707;SDS011;53622;0.000;0.000;2022-11-14T16:07:59;2.72;;;1.77;;
66707;SDS011;53622;0.000;0.000;2022-11-14T16:10:47;3.42;;;1.77;;
66707;SDS011;53622;0.000;0.000;2022-11-14T16:13:35;8.45;;;1.80;;
66707;SDS011;53622;0.000;0.000;2022-11-14T16:16:24;11.23;;;2.30;;
66707;SDS011;53622;0.000;0.000;2022-11-14T16:19:13;6.18;;;1.95;;
66707;SDS011;53622;0.000;0.000;2022-11-14T16:22:02;5.13;;;1.88;;
66707;SDS011;53622;0.000;0.000;2022-11-14T16:24:50;4.10;;;1.88;;
66707;SDS011;53622;0.000;0.000;2022-11-14T16:27:38;3.17;;;2.00;;
66707;SDS011;53622;0.000;0.000;2022-11-14T16:30:26;6.88;;;2.10;;
66707;SDS011;53622;0.000;0.000;2022-11-14T16:33:15;4.28;;;2.10;;
66707;SDS011;53622;0.000;0.000;2022-11-14T16:36:03;3.72;;;1.90;;
66707;SDS011;53622;0.000;0.000;2022-11-14T16:38:51;4.63;;;1.75;;
66707;SDS011;53622;0.000;0.000;2022-11-14T16:41:44;4.68;;;2.00;;
66707;SDS011;53622;0.000;0.000;2022-11-14T16:44:32;2.33;;;1.92;;
66707;SDS011;53622;0.000;0.000;2022-11-14T16:47:28;6.45;;;2.80;;
66707;SDS011;53622;0.000;0.000;2022-11-14T16:50:19;7.80;;;2.55;;
66707;SDS011;53622;0.000;0.000;2022-11-14T16:53:07;4.50;;;1.85;;
66707;SDS011;53622;0.000;0.000;2022-11-14T16:55:54;3.28;;;1.92;;
66707;SDS011;53622;0.000;0.000;2022-11-14T16:58:42;3.25;;;2.03;;
66707;SDS011;53622;0.000;0.000;2022-11-14T17:01:30;2.60;;;1.95;;
66707;SDS011;53622;0.000;0.000;2022-11-14T17:04:18;3.92;;;2.15;;
66707;SDS011;53622;0.000;0.000;2022-11-14T17:07:07;3.45;;;2.25;;
66707;SDS011;53622;0.000;0.000;2022-11-14T17:09:55;4.85;;;1.95;;
66707;SDS011;53622;0.000;0.000;2022-11-14T17:12:43;2.85;;;1.80;;
66707;SDS011;53622;0.000;0.000;2022-11-14T17:15:31;4.28;;;1.77;;
66707;SDS011;53622;0.000;0.000;2022-11-14T17:18:19;5.03;;;1.80;;
66707;SDS011;53622;0.000;0.000;2022-11-14T17:21:08;17.35;;;3.30;;
66707;SDS011;53622;0.000;0.000;2022-11-14T17:23:59;16.48;;;2.45;;
66707;SDS011;53622;0.000;0.000;2022-11-14T17:26:47;13.73;;;2.75;;
66707;SDS011;53622;0.000;0.000;2022-11-14T17:29:35;14.82;;;2.58;;
66707;SDS011;53622;0.000;0.000;2022-11-14T17:32:23;8.60;;;2.30;;
66707;SDS011;53622;0.000;0.000;2022-11-14T17:35:11;6.20;;;2.25;;
66707;SDS011;53622;0.000;0.000;2022-11-14T17:37:58;4.57;;;2.13;;
66707;SDS011;53622;0.000;0.000;2022-11-14T17:40:48;7.93;;;2.20;;
66707;SDS011;53622;0.000;0.000;2022-11-14T17:43:42;10.52;;;2.38;;
66707;SDS011;53622;0.000;0.000;2022-11-14T17:46:30;7.13;;;2.55;;
66707;SDS011;53622;0.000;0.000;2022-11-14T17:49:18;6.30;;;2.08;;
66707;SDS011;53622;0.000;0.000;2022-11-14T17:52:06;5.72;;;2.45;;
66707;SDS011;53622;0.000;0.000;2022-11-14T17:54:54;5.10;;;2.47;;
66707;SDS011;53622;0.000;0.000;2022-11-14T17:57:43;4.82;;;2.35;;
66707;SDS011;53622;0.000;0.000;2022-11-14T18:00:31;6.00;;;2.40;;